Portada
METAR-TAF:

METAR-TAF

Aeroports :

Churchill Falls, Terranova i Labrador, Canadà

latitud: 53-33N, longitud: 064-06W, altitud: 440 m

Observació

L'informe es va fer fa 58 minuts, a les 12:00 UTC
Vent 3 kt del Sud/Sud-Oest
Temperatura -29°C
Humitat 68%
Pressió 1022 hPa
Visibilitat: 14.5 km
Cel clar

METAR: CZUM 181200Z AUTO 21003KT 9SM CLR M29/M33 A3019 RMK SLP286

Hora: 08:58 (12:58 UTC)

Pronòstic

L'informe es va fer fa 5 hores i 20 minuts, a les 07:38 UTC
Pronòstic vàlid del 18 a les 08 UTC al 18 a les 20 UTC
Vent 5 kt del Oest
Visibilitat: 10 km
Cel clar
A partir de les 18 a les 1700 UTC
Vent 10 kt del Sud-Oest amb ràfegues de 20 kt
Visibilitat: 10 km
Escasses núvols a una alçada de 2000 ft
Cel cobert a una alçada de 8000 ft
neu

TAF: CZUM 180738Z 1808/1820 26005KT P6SM SKC FM181700 23010G20KT P6SM -SN FEW020 OVC080 RMK FCST BASED ON AUTO OBS. NXT FCST BY 181400Z

Observacions i pronòstics meteorològics de més de 4000 aeroports (METAR i TAF).

Les estacions disponibles són els punts grocs i vermells al mapa.

Posi el ratolí al punt desitjat per veure el nom de l'estació.

Feu clic per veure les observacions i els pronòstics meteorològics.

Per canviar el mapa: feu clic els botons verds amb una creu de color negre per apropar; al botó verd amb un guió per allunyar la imatge; o en les fletxes verdes per a mapes adjacents.


METAR-TAF: